Time;durP1;ratioP1;P1;durP2;ratioP2;P2;SDS_P1;SDS_P2;PMS_P1;PMS_P2;Temp;Humidity;BMP_temperature;BMP_pressure;BME280_temperature;BME280_humidity;BME280_pressure;Samples;Min_cycle;Max_cycle;Signal;HPM_P1;HPM_P2
2023/02/11 00:00:56;;;;;;;66.72;34.40;;;;;;;-5.37;92.60;98014.00;2106211;28;20060;-73
2023/02/11 00:01:59;;;;;;;70.13;33.35;;;;;;;-5.38;92.16;98012.22;2106275;28;20067;-73
2023/02/11 00:03:00;;;;;;;68.22;34.20;;;;;;;-5.37;92.02;98014.84;2106690;28;20063;-73
2023/02/11 00:04:01;;;;;;;70.97;34.25;;;;;;;-5.36;92.52;98006.44;2106835;28;20047;-73
2023/02/11 00:05:03;;;;;;;71.03;34.55;;;;;;;-5.33;93.16;98005.72;2106686;28;20473;-73
2023/02/11 00:06:08;;;;;;;63.15;32.05;;;;;;;-5.25;92.80;98013.69;2106279;28;20052;-73
2023/02/11 00:07:09;;;;;;;70.93;32.10;;;;;;;-5.27;92.89;98010.19;2106076;28;20476;-74
2023/02/11 00:08:15;;;;;;;66.28;33.15;;;;;;;-5.32;93.12;98010.88;2106654;28;20036;-73
2023/02/11 00:09:16;;;;;;;63.90;33.45;;;;;;;-5.37;92.60;98008.94;2106113;28;20052;-74
2023/02/11 00:10:17;;;;;;;63.10;32.90;;;;;;;-5.40;91.97;98012.19;2106001;28;20475;-74
2023/02/11 00:11:19;;;;;;;63.00;32.70;;;;;;;-5.41;91.80;98007.91;2097673;28;20031;-73
2023/02/11 00:12:20;;;;;;;65.78;33.50;;;;;;;-5.40;92.72;98009.66;2097949;28;20040;-74
2023/02/11 00:13:22;;;;;;;69.95;33.58;;;;;;;-5.47;92.51;98005.06;2106764;28;20043;-74
2023/02/11 00:14:23;;;;;;;61.53;32.47;;;;;;;-5.50;93.10;98004.06;2106768;28;20035;-74
2023/02/11 00:15:24;;;;;;;64.45;31.83;;;;;;;-5.61;92.81;97999.38;2105297;28;20059;-74
2023/02/11 00:16:25;;;;;;;63.10;32.03;;;;;;;-5.59;92.68;98007.88;2106755;28;20036;-74
2023/02/11 00:17:26;;;;;;;66.03;32.85;;;;;;;-5.64;92.35;98006.81;2106681;28;20032;-74
2023/02/11 00:18:27;;;;;;;67.68;34.00;;;;;;;-5.70;92.42;98003.97;2106553;28;20471;-74
2023/02/11 00:19:28;;;;;;;65.85;32.78;;;;;;;-5.69;91.37;97999.78;2106691;28;20055;-74
2023/02/11 00:20:29;;;;;;;67.30;33.17;;;;;;;-5.76;91.94;98004.53;2106558;28;20043;-74
2023/02/11 00:21:31;;;;;;;63.40;32.22;;;;;;;-5.56;92.32;98007.16;2106733;28;20372;-77
2023/02/11 00:22:32;;;;;;;58.35;30.80;;;;;;;-5.61;91.98;98006.97;2106702;28;20040;-77
2023/02/11 00:23:33;;;;;;;62.22;31.35;;;;;;;-5.60;91.91;98001.09;2106731;28;20036;-77
2023/02/11 00:24:37;;;;;;;60.42;30.30;;;;;;;-5.56;92.05;98000.47;2106719;28;20035;-77
2023/02/11 00:25:42;;;;;;;68.28;34.00;;;;;;;-5.48;93.66;98005.88;2106500;28;20039;-77
2023/02/11 00:26:43;;;;;;;69.25;33.03;;;;;;;-5.37;94.10;97989.53;2106818;28;20028;-74
2023/02/11 00:27:44;;;;;;;66.25;33.60;;;;;;;-5.33;93.12;97999.00;2106577;28;20436;-74
2023/02/11 00:28:47;;;;;;;65.63;33.03;;;;;;;-5.37;93.99;98001.31;2097559;28;20067;-74
2023/02/11 00:29:48;;;;;;;66.22;32.47;;;;;;;-5.47;93.27;98000.00;2097897;28;20040;-73
2023/02/11 00:30:56;;;;;;;63.95;31.50;;;;;;;-5.56;93.06;97997.94;2106621;28;20047;-74
2023/02/11 00:31:57;;;;;;;59.75;31.08;;;;;;;-5.64;93.19;97989.09;2106759;28;20052;-73
2023/02/11 00:32:58;;;;;;;65.05;30.42;;;;;;;-5.51;93.24;97999.78;2106639;28;20396;-73
2023/02/11 00:33:59;;;;;;;63.28;33.00;;;;;;;-5.57;92.80;98001.22;2106818;28;20054;-73
2023/02/11 00:35:00;;;;;;;62.40;32.03;;;;;;;-5.59;92.27;97994.34;2106462;28;20043;-73
2023/02/11 00:36:06;;;;;;;59.58;30.40;;;;;;;-5.67;92.67;97991.47;2106503;28;20039;-73
2023/02/11 00:37:07;;;;;;;63.58;31.95;;;;;;;-5.62;93.08;98002.66;2106684;28;20044;-73
2023/02/11 00:38:08;;;;;;;63.28;31.27;;;;;;;-5.66;93.35;98000.81;2106672;28;20044;-73
2023/02/11 00:39:10;;;;;;;63.78;32.40;;;;;;;-5.69;92.45;97997.25;2106479;28;20376;-72
2023/02/11 00:40:11;;;;;;;60.50;31.15;;;;;;;-5.70;93.15;97998.03;2097780;28;20048;-73
2023/02/11 00:41:12;;;;;;;64.30;31.50;;;;;;;-5.72;91.83;97994.56;2089169;28;20052;-73
2023/02/11 00:42:13;;;;;;;66.28;31.45;;;;;;;-5.72;91.96;97997.09;2097172;28;20048;-73
2023/02/11 00:43:14;;;;;;;67.70;32.70;;;;;;;-5.74;92.08;97991.97;2106913;28;20058;-73
2023/02/11 00:44:15;;;;;;;61.38;31.20;;;;;;;-5.73;91.91;98002.97;2106578;28;20040;-73
2023/02/11 00:45:17;;;;;;;65.60;32.67;;;;;;;-5.72;92.51;97999.63;2105485;28;20051;-73
2023/02/11 00:46:18;;;;;;;56.08;29.83;;;;;;;-5.70;93.21;98001.44;2106542;28;20040;-72
2023/02/11 00:47:19;;;;;;;61.08;30.77;;;;;;;-5.72;93.05;98002.16;2106369;28;20135;-73
2023/02/11 00:48:20;;;;;;;66.25;32.65;;;;;;;-5.68;93.62;97997.31;2097373;28;20044;-72
2023/02/11 00:49:22;;;;;;;64.25;31.25;;;;;;;-5.60;93.83;98002.75;2089104;28;20126;-73
2023/02/11 00:50:23;;;;;;;64.85;32.33;;;;;;;-5.53;93.14;98002.28;2088967;28;20509;-73
2023/02/11 00:51:25;;;;;;;58.83;30.27;;;;;;;-5.52;93.86;98003.13;2097494;28;20033;-73
2023/02/11 00:52:26;;;;;;;60.42;31.27;;;;;;;-5.50;93.82;98001.53;2106009;28;20067;-73
2023/02/11 00:53:27;;;;;;;63.17;31.58;;;;;;;-5.58;93.56;98007.09;2106467;28;20032;-73
2023/02/11 00:54:28;;;;;;;56.03;29.88;;;;;;;-5.64;93.05;98008.47;2106521;28;20059;-73
2023/02/11 00:55:29;;;;;;;60.63;31.25;;;;;;;-5.71;92.54;98006.44;2106418;28;20047;-73
2023/02/11 00:56:30;;;;;;;59.67;31.45;;;;;;;-5.78;92.58;98003.59;2106432;28;20032;-73
2023/02/11 00:57:31;;;;;;;64.45;31.20;;;;;;;-5.82;92.98;98006.78;2096871;28;20040;-73
2023/02/11 00:58:33;;;;;;;62.75;29.52;;;;;;;-5.77;92.53;98001.97;2088651;28;20072;-73
2023/02/11 00:59:34;;;;;;;58.10;31.45;;;;;;;-5.72;93.79;98008.13;2097560;28;20467;-73
2023/02/11 01:00:35;;;;;;;56.97;29.08;;;;;;;-5.71;92.52;98008.97;2096508;28;20055;-73
2023/02/11 01:01:36;;;;;;;57.88;30.48;;;;;;;-5.76;93.44;98014.66;2089387;28;20032;-73
2023/02/11 01:02:38;;;;;;;65.97;32.17;;;;;;;-5.77;93.41;98015.47;2097462;28;20523;-73
2023/02/11 01:03:39;;;;;;;53.42;27.85;;;;;;;-5.70;92.67;98010.69;2097661;28;20055;-73
2023/02/11 01:04:40;;;;;;;60.28;31.27;;;;;;;-5.66;93.84;98010.94;2089066;28;20055;-73
2023/02/11 01:05:41;;;;;;;61.78;31.20;;;;;;;-5.72;93.19;98012.28;2089325;28;20045;-73
2023/02/11 01:06:43;;;;;;;62.65;30.95;;;;;;;-6.09;92.21;97965.88;2097247;28;20045;-75
2023/02/11 01:07:44;;;;;;;61.88;31.10;;;;;;;-5.86;92.16;98007.41;2106477;28;20047;-75
2023/02/11 01:08:45;;;;;;;63.55;31.10;;;;;;;-5.87;94.22;98009.91;2106502;28;20051;-75
2023/02/11 01:09:47;;;;;;;69.97;31.80;;;;;;;-5.95;93.78;98012.06;2105471;28;20044;-75
2023/02/11 01:10:55;;;;;;;67.13;32.08;;;;;;;-6.01;92.85;98010.13;2106484;28;20040;-75
2023/02/11 01:11:56;;;;;;;59.63;31.08;;;;;;;-6.05;94.00;98007.34;2105840;28;20056;-75
2023/02/11 01:12:57;;;;;;;63.15;31.98;;;;;;;-6.10;93.98;98006.25;2097461;28;20048;-75
2023/02/11 01:14:00;;;;;;;67.05;32.38;;;;;;;-6.12;93.21;98003.66;2089231;28;20045;-75
2023/02/11 01:15:01;;;;;;;67.40;33.45;;;;;;;-6.18;92.37;98002.47;2088503;28;20049;-75
2023/02/11 01:16:06;;;;;;;66.43;33.15;;;;;;;-6.15;92.99;98005.16;2089094;28;20049;-75
2023/02/11 01:17:07;;;;;;;62.92;31.65;;;;;;;-6.17;92.10;98006.72;2096901;28;20492;-74
2023/02/11 01:18:08;;;;;;;70.38;35.00;;;;;;;-6.23;93.26;98000.59;2073030;28;20041;-74
2023/02/11 01:19:09;;;;;;;66.57;32.42;;;;;;;-6.24;92.21;98000.50;2080749;28;20069;-74
2023/02/11 01:20:16;;;;;;;65.15;33.30;;;;;;;-6.26;92.49;98004.63;2097896;28;20036;-74
2023/02/11 01:21:17;;;;;;;67.07;32.50;;;;;;;-6.30;93.74;98008.66;2098128;28;20040;-74
2023/02/11 01:22:18;;;;;;;63.00;31.77;;;;;;;-6.26;93.27;98000.41;2097974;28;20044;-74
2023/02/11 01:23:21;;;;;;;64.80;33.40;;;;;;;-6.29;93.22;97999.41;2097346;28;20376;-74
2023/02/11 01:24:22;;;;;;;71.10;34.28;;;;;;;-6.26;94.70;98005.47;2097393;28;20051;-74
2023/02/11 01:25:23;;;;;;;72.20;34.65;;;;;;;-6.26;94.99;97992.84;2097248;28;20058;-74
2023/02/11 01:26:24;;;;;;;66.10;34.05;;;;;;;-6.22;94.55;97996.41;2089565;28;20045;-74
2023/02/11 01:27:25;;;;;;;70.03;34.30;;;;;;;-6.27;94.25;97993.63;2099254;28;20508;-74
2023/02/11 01:28:27;;;;;;;68.97;32.95;;;;;;;-6.30;93.56;97997.69;2098989;28;20029;-74
2023/02/11 01:29:28;;;;;;;64.88;33.78;;;;;;;-6.31;93.03;97995.94;2099005;28;20032;-74
2023/02/11 01:30:29;;;;;;;69.65;34.42;;;;;;;-6.30;93.28;97995.16;2099062;28;20036;-74
2023/02/11 01:31:31;;;;;;;68.47;33.78;;;;;;;-6.30;93.86;98003.59;2099540;28;20039;-74
2023/02/11 01:32:34;;;;;;;74.45;35.28;;;;;;;-6.36;92.75;97990.66;2098866;28;20040;-74
2023/02/11 01:33:36;;;;;;;69.28;32.47;;;;;;;-6.30;93.58;97998.53;2098979;28;20415;-74
2023/02/11 01:34:37;;;;;;;69.38;33.17;;;;;;;-6.32;92.40;97990.00;2099050;28;20043;-74
2023/02/11 01:35:38;;;;;;;78.25;36.10;;;;;;;-6.33;92.51;97995.00;2098410;28;20048;-74
2023/02/11 01:36:40;;;;;;;72.93;33.40;;;;;;;-6.32;92.29;97997.59;2098880;28;20048;-74
2023/02/11 01:37:41;;;;;;;76.15;35.50;;;;;;;-6.35;92.75;98001.63;2098905;28;20062;-74
2023/02/11 01:38:43;;;;;;;73.82;34.05;;;;;;;-6.36;93.46;98002.41;2099589;28;20044;-74
2023/02/11 01:39:44;;;;;;;72.70;34.50;;;;;;;-6.38;93.29;97996.44;2099600;28;20036;-74
2023/02/11 01:40:54;;;;;;;72.15;34.10;;;;;;;-6.41;92.71;97991.19;2098732;28;20048;-74
2023/02/11 01:41:55;;;;;;;54.13;26.35;;;;;;;-6.38;92.91;97999.81;2099088;28;20036;-73
2023/02/11 01:42:56;;;;;;;70.32;33.42;;;;;;;-6.36;92.98;98008.38;2099567;28;20045;-73
2023/02/11 01:43:57;;;;;;;71.15;34.38;;;;;;;-6.37;92.36;98000.69;2099203;28;20071;-74
2023/02/11 01:44:59;;;;;;;85.32;36.55;;;;;;;-6.37;91.74;97998.16;2098926;28;20047;-73
2023/02/11 01:46:20;;;;;;;72.57;34.90;;;;;;;-6.37;91.97;97995.63;2082565;28;20034;-73
2023/02/11 01:47:21;;;;;;;76.05;35.50;;;;;;;-6.41;92.69;97994.63;2087023;28;20051;-73
2023/02/11 01:48:34;;;;;;;78.70;37.22;;;;;;;-6.44;92.08;97990.28;2099026;28;20471;-73
2023/02/11 01:49:38;;;;;;;75.50;35.55;;;;;;;-6.46;92.57;97996.03;2098349;28;20045;-73
2023/02/11 01:50:39;;;;;;;77.25;37.92;;;;;;;-6.48;91.91;97988.38;2091152;28;20477;-73
2023/02/11 01:51:46;;;;;;;78.10;36.78;;;;;;;-6.48;93.21;97995.09;2082315;28;20044;-73
2023/02/11 01:52:47;;;;;;;72.93;37.15;;;;;;;-6.54;91.63;97984.66;2084030;28;20042;-74
2023/02/11 01:57:51;;;;;;;77.45;34.88;;;;;;;-6.66;92.28;97990.81;2081061;28;20516;-74
2023/02/11 01:58:52;;;;;;;75.28;34.80;;;;;;;-6.71;91.93;97979.63;2076855;28;20053;-73
2023/02/11 02:00:09;;;;;;;79.50;36.53;;;;;;;-6.68;92.19;97989.03;2066239;28;20045;-73
2023/02/11 02:01:18;;;;;;;73.13;33.75;;;;;;;-6.72;92.27;97977.88;2080261;28;20040;-73
2023/02/11 02:02:22;;;;;;;82.38;35.60;;;;;;;-6.70;93.05;97983.88;2085422;28;20037;-73
2023/02/11 02:03:23;;;;;;;81.45;37.10;;;;;;;-6.71;92.53;97984.69;2098670;28;20028;-73
2023/02/11 02:04:26;;;;;;;83.38;37.22;;;;;;;-6.70;92.67;97980.50;2099258;28;20404;-73
2023/02/11 02:05:36;;;;;;;76.85;36.60;;;;;;;-6.71;91.87;97979.63;2090398;28;20052;-73
2023/02/11 02:06:42;;;;;;;83.40;38.50;;;;;;;-6.72;93.19;97977.00;2092147;28;20032;-73
2023/02/11 02:07:55;;;;;;;79.68;36.22;;;;;;;-6.80;93.10;97968.16;2081341;28;20045;-73
2023/02/11 02:09:01;;;;;;;83.20;36.55;;;;;;;-6.83;92.13;97968.00;2069779;28;20050;-73
2023/02/11 02:10:09;;;;;;;82.70;37.58;;;;;;;-6.81;92.10;97972.34;2075955;28;20038;-73
2023/02/11 02:11:10;;;;;;;80.60;37.55;;;;;;;-6.85;92.36;97977.16;2092077;28;20037;-73
2023/02/11 02:12:12;;;;;;;78.70;36.40;;;;;;;-6.88;92.91;97973.69;2099210;28;20047;-73
2023/02/11 02:13:13;;;;;;;79.53;35.58;;;;;;;-6.88;92.33;97975.34;2098492;28;20055;-73
2023/02/11 02:14:14;;;;;;;84.30;37.45;;;;;;;-6.94;93.24;97949.78;2098559;28;20049;-73
2023/02/11 02:15:23;;;;;;;88.18;37.78;;;;;;;-6.85;93.42;97967.91;2098583;28;20400;-73
2023/02/11 02:16:28;;;;;;;74.45;34.60;;;;;;;-6.81;93.79;97974.88;2098617;28;20039;-73
2023/02/11 02:17:36;;;;;;;71.35;34.45;;;;;;;-6.77;93.58;97974.22;2090557;28;20105;-73
2023/02/11 02:18:59;;;;;;;62.45;27.95;;;;;;;-6.65;93.40;97968.97;2091788;28;20044;-73
2023/02/11 02:20:35;;;;;;;72.53;34.13;;;;;;;-6.71;93.79;97958.50;2084456;28;20061;-73
2023/02/11 02:21:48;;;;;;;70.60;33.45;;;;;;;-6.72;94.95;97947.53;2064733;28;20117;-73
2023/02/11 02:23:02;;;;;;;80.07;35.05;;;;;;;-6.66;93.86;97947.84;2090386;28;20052;-73
2023/02/11 02:24:15;;;;;;;69.90;32.58;;;;;;;-6.57;95.28;97946.59;2092898;28;20041;-73
2023/02/11 02:25:23;;;;;;;74.20;33.33;;;;;;;-6.50;95.27;97944.44;2098931;28;20040;-73
2023/02/11 02:26:37;;;;;;;64.43;31.10;;;;;;;-6.35;94.63;97946.00;2099764;28;20126;-73
2023/02/11 02:28:03;;;;;;;65.80;33.10;;;;;;;-6.13;94.68;97945.41;2098625;28;20047;-73
2023/02/11 02:29:31;;;;;;;66.30;31.90;;;;;;;-6.22;95.57;97940.78;2098835;28;20041;-73
2023/02/11 02:30:57;;;;;;;67.03;31.05;;;;;;;-6.31;95.38;97926.00;2098989;28;20044;-73
2023/02/11 02:32:21;;;;;;;70.10;32.25;;;;;;;-6.24;94.91;97922.97;2098686;28;20131;-73
2023/02/11 02:33:30;;;;;;;61.90;30.10;;;;;;;-6.22;94.96;97921.41;2087655;28;20381;-73
2023/02/11 02:34:54;;;;;;;65.22;30.45;;;;;;;-6.15;95.18;97914.97;2085424;28;20432;-74
2023/02/11 02:36:23;;;;;;;62.40;31.88;;;;;;;-6.16;94.72;97905.66;2092695;28;20056;-73
2023/02/11 02:37:28;;;;;;;;;;;;;;;-6.11;95.13;97911.81;2090463;28;20048;-73
2023/02/11 02:38:43;;;;;;;59.28;28.27;;;;;;;-6.07;93.98;97907.75;2082048;28;19943;-73
2023/02/11 02:39:44;;;;;;;59.58;27.73;;;;;;;-6.03;95.10;97907.13;2083718;28;20053;-73
2023/02/11 02:40:48;;;;;;;64.18;30.15;;;;;;;-6.09;94.25;97904.31;2074199;28;20034;-72
2023/02/11 02:41:49;;;;;;;62.17;28.63;;;;;;;-5.95;94.61;97910.00;2074685;28;20052;-73
2023/02/11 02:42:50;;;;;;;62.10;28.80;;;;;;;-6.01;93.45;97913.13;2074085;28;20037;-73
2023/02/11 02:43:51;;;;;;;57.88;28.77;;;;;;;-6.03;93.54;97902.91;2073919;28;20045;-73
2023/02/11 02:44:53;;;;;;;52.55;28.17;;;;;;;-5.96;93.84;97898.13;2073779;28;20046;-73
2023/02/11 02:45:54;;;;;;;59.13;27.02;;;;;;;-5.85;94.48;97894.44;2073567;28;20042;-73
2023/02/11 02:46:55;;;;;;;56.20;27.48;;;;;;;-5.76;93.57;97894.84;2090183;28;20043;-73
2023/02/11 02:47:56;;;;;;;57.40;29.33;;;;;;;-5.77;94.08;97880.47;2098714;28;20032;-72
2023/02/11 02:48:58;;;;;;;57.92;28.60;;;;;;;-5.83;94.24;97882.72;2098466;28;20122;-73
2023/02/11 02:49:59;;;;;;;55.70;27.15;;;;;;;-5.82;93.17;97876.88;2098866;28;20048;-73
2023/02/11 02:51:24;;;;;;;53.97;25.98;;;;;;;-5.77;94.02;97881.34;2097954;28;20064;-73
2023/02/11 02:52:31;;;;;;;60.10;27.23;;;;;;;-5.70;92.99;97882.47;2093371;28;20041;-73
2023/02/11 02:53:42;;;;;;;50.40;24.60;;;;;;;-5.71;93.79;97890.88;2098339;28;20050;-73
2023/02/11 02:55:15;;;;;;;53.05;26.05;;;;;;;-5.70;93.69;97886.69;2098453;28;20045;-73
2023/02/11 02:56:29;;;;;;;49.70;24.15;;;;;;;-5.67;93.23;97896.94;2094529;28;20044;-73
2023/02/11 02:58:04;;;;;;;48.03;24.20;;;;;;;-5.71;93.50;97880.75;2098721;28;20436;-73
2023/02/11 02:59:18;;;;;;;50.53;24.10;;;;;;;-5.72;93.10;97884.09;2090074;28;20040;-73
2023/02/11 03:00:42;;;;;;;44.17;22.60;;;;;;;-5.66;92.79;97897.03;2094333;28;20495;-73
2023/02/11 03:01:49;;;;;;;47.35;22.40;;;;;;;-5.71;92.53;97893.41;2090185;28;20038;-73
2023/02/11 03:03:23;;;;;;;52.08;25.05;;;;;;;-5.52;92.60;97897.66;2092049;28;20051;-73
2023/02/11 03:04:34;;;;;;;47.40;22.55;;;;;;;-5.37;93.13;97902.56;2094433;28;20491;-73
2023/02/11 03:05:48;;;;;;;46.10;21.98;;;;;;;-5.42;91.66;97901.47;2098535;28;20037;-73
2023/02/11 03:07:22;;;;;;;45.58;22.15;;;;;;;-5.40;92.79;97899.88;2090322;28;20041;-73
2023/02/11 03:08:39;;;;;;;44.38;22.60;;;;;;;-5.52;91.47;97910.31;2095064;28;20433;-73
2023/02/11 03:09:45;;;;;;;46.75;21.75;;;;;;;-5.55;92.42;97918.63;2098371;28;20044;-73
2023/02/11 03:10:48;;;;;;;41.20;21.73;;;;;;;-5.52;91.88;97917.03;2090510;28;20409;-73
2023/02/11 03:11:49;;;;;;;44.90;22.00;;;;;;;-5.37;91.90;97917.75;2098453;28;20040;-73
2023/02/11 03:12:51;;;;;;;45.60;23.88;;;;;;;-5.32;92.51;97917.16;2098690;28;20044;-73
2023/02/11 03:13:52;;;;;;;44.35;23.13;;;;;;;-5.35;92.04;97911.94;2089885;28;20037;-73
2023/02/11 03:14:53;;;;;;;41.30;21.98;;;;;;;-5.47;91.88;97918.13;2081707;28;20056;-73
2023/02/11 03:15:55;;;;;;;42.97;21.70;;;;;;;-5.43;92.36;97907.31;2098160;28;20558;-73
2023/02/11 03:16:57;;;;;;;42.38;22.20;;;;;;;-5.44;92.51;97911.53;2089806;28;20420;-73
2023/02/11 03:17:59;;;;;;;42.30;22.30;;;;;;;-5.50;91.93;97915.47;2090215;28;20384;-73
2023/02/11 03:19:12;;;;;;;42.08;21.40;;;;;;;-5.39;91.33;97914.28;2098053;28;20404;-73
2023/02/11 03:20:15;;;;;;;40.47;20.73;;;;;;;-5.49;91.96;97907.06;2099009;28;20133;-73
2023/02/11 03:21:16;;;;;;;40.80;20.67;;;;;;;-5.40;91.81;97915.06;2098044;28;20036;-73
2023/02/11 03:22:23;;;;;;;41.40;21.30;;;;;;;-5.41;91.46;97916.72;2090055;28;20033;-73
2023/02/11 03:23:28;;;;;;;42.85;20.55;;;;;;;-5.37;91.70;97916.09;2082689;28;20037;-73
2023/02/11 03:24:34;;;;;;;42.92;21.20;;;;;;;-5.35;91.77;97908.53;2090800;28;20045;-73
2023/02/11 03:25:37;;;;;;;44.72;20.15;;;;;;;-5.58;90.76;97887.25;2098144;28;20048;-73
2023/02/11 03:26:40;;;;;;;41.78;21.63;;;;;;;-5.59;91.60;97904.09;2082261;28;20452;-73
2023/02/11 03:28:37;;;;;;;40.47;21.38;;;;;;;-5.65;91.43;97908.88;2082075;28;20041;-73
2023/02/11 03:29:48;;;;;;;46.55;20.92;;;;;;;-5.65;91.35;97906.34;2079787;28;20053;-73
2023/02/11 03:30:54;;;;;;;40.05;20.42;;;;;;;-5.73;91.54;97912.72;2064925;28;20050;-73
2023/02/11 03:32:06;;;;;;;40.58;20.15;;;;;;;-5.81;91.89;97904.75;2068167;28;20046;-73
2023/02/11 03:33:27;;;;;;;41.00;21.17;;;;;;;-5.92;90.90;97898.34;2085027;28;20064;-73
2023/02/11 03:34:40;;;;;;;41.20;20.45;;;;;;;-5.80;91.43;97910.69;2085531;28;20488;-73
2023/02/11 03:35:49;;;;;;;46.38;21.25;;;;;;;-5.79;91.87;97898.13;2087323;28;20492;-73
2023/02/11 03:36:51;;;;;;;;;;;;;;;-5.78;91.37;97898.97;2084611;28;20041;-73
2023/02/11 03:38:13;;;;;;;39.17;19.42;;;;;;;-5.82;90.84;97895.44;2090858;28;19919;-72
2023/02/11 03:39:24;;;;;;;39.33;18.90;;;;;;;-5.80;90.94;97890.44;2098196;28;20033;-73
2023/02/11 03:40:28;;;;;;;40.30;19.98;;;;;;;-5.74;91.52;97889.88;2098076;28;20063;-73
2023/02/11 03:41:30;;;;;;;40.67;20.20;;;;;;;-5.83;90.81;97885.25;2089826;28;20029;-74
2023/02/11 03:42:34;;;;;;;40.72;20.30;;;;;;;-5.81;91.68;97881.13;2073958;28;20034;-75
2023/02/11 03:43:43;;;;;;;45.67;21.55;;;;;;;-5.80;91.28;97880.31;2082488;28;20037;-75
2023/02/11 03:44:58;;;;;;;42.35;20.33;;;;;;;-5.87;91.12;97881.72;2082890;28;20045;-75
2023/02/11 03:45:59;;;;;;;38.03;18.55;;;;;;;-5.88;91.23;97879.09;2083264;28;20045;-75
2023/02/11 03:47:00;;;;;;;40.88;21.35;;;;;;;-5.97;91.27;97861.00;2082097;28;20060;-73
2023/02/11 03:48:11;;;;;;;41.90;20.98;;;;;;;-5.83;90.51;97881.03;2081424;28;20045;-73
2023/02/11 03:49:13;;;;;;;39.33;20.13;;;;;;;-5.82;90.65;97882.78;2097942;28;20415;-73
2023/02/11 03:50:14;;;;;;;41.92;20.83;;;;;;;-5.84;91.60;97883.50;2097816;28;20051;-73
2023/02/11 03:51:15;;;;;;;39.97;21.17;;;;;;;-5.73;91.35;97886.53;2081487;28;20049;-73
2023/02/11 03:52:17;;;;;;;42.42;20.77;;;;;;;-5.73;90.97;97897.53;2081603;28;20393;-73
2023/02/11 03:53:18;;;;;;;40.75;20.77;;;;;;;-5.94;91.01;97863.66;2089756;28;20037;-73
2023/02/11 03:54:23;;;;;;;39.78;20.35;;;;;;;-5.82;91.18;97887.84;2081461;28;20535;-73
2023/02/11 03:55:24;;;;;;;39.83;20.85;;;;;;;-5.74;90.76;97905.94;2082492;28;20464;-73
2023/02/11 03:56:29;;;;;;;37.22;19.67;;;;;;;-5.77;91.02;97905.78;2089883;28;20052;-73
2023/02/11 03:57:33;;;;;;;35.88;19.83;;;;;;;-5.79;90.78;97898.13;2090285;28;20029;-73
2023/02/11 03:58:34;;;;;;;41.38;19.27;;;;;;;-5.68;90.28;97905.34;2097751;28;20486;-73
2023/02/11 03:59:56;;;;;;;38.15;19.88;;;;;;;-5.41;91.00;97901.53;2098359;28;20140;-74
2023/02/11 04:00:57;;;;;;;32.88;17.50;;;;;;;-5.55;90.06;97897.53;2098493;28;20040;-73
2023/02/11 04:01:58;;;;;;;37.83;20.17;;;;;;;-5.45;90.33;97909.81;2098324;28;20043;-73
2023/02/11 04:02:59;;;;;;;34.22;18.30;;;;;;;-5.41;89.75;97911.66;2098409;28;20036;-73
2023/02/11 04:04:00;;;;;;;35.47;18.70;;;;;;;-5.39;89.76;97911.75;2098508;28;20055;-73
2023/02/11 04:05:02;;;;;;;40.22;20.02;;;;;;;-5.43;90.24;97908.19;2098346;28;20427;-73
2023/02/11 04:06:03;;;;;;;35.50;19.77;;;;;;;-5.45;89.42;97921.56;2098292;28;20491;-73
2023/02/11 04:07:04;;;;;;;36.80;19.05;;;;;;;-5.50;89.68;97916.31;2098273;28;20033;-73
2023/02/11 04:08:05;;;;;;;32.75;18.58;;;;;;;-5.48;89.91;97922.34;2098212;28;20045;-73
2023/02/11 04:09:07;;;;;;;38.30;18.55;;;;;;;-5.51;90.10;97918.78;2098439;28;20044;-73
2023/02/11 04:10:10;;;;;;;38.30;19.83;;;;;;;-5.54;89.63;97917.81;2098321;28;20047;-73
2023/02/11 04:11:11;;;;;;;37.33;18.80;;;;;;;-5.54;90.42;97919.50;2098176;28;20048;-73
2023/02/11 04:12:12;;;;;;;35.70;19.58;;;;;;;-5.62;89.37;97910.69;2098266;28;20471;-73
2023/02/11 04:13:13;;;;;;;33.95;18.40;;;;;;;-5.59;90.51;97924.34;2098331;28;20044;-73
2023/02/11 04:14:15;;;;;;;42.35;21.10;;;;;;;-5.61;90.64;97920.03;2098273;28;20043;-73
2023/02/11 04:15:16;;;;;;;37.38;18.95;;;;;;;-5.60;89.75;97926.81;2098445;28;20499;-73
2023/02/11 04:16:17;;;;;;;37.80;19.48;;;;;;;-5.58;90.09;97927.75;2098536;28;20047;-73
2023/02/11 04:17:18;;;;;;;44.97;20.85;;;;;;;-5.63;89.62;97929.22;2098425;28;20024;-73
2023/02/11 04:18:19;;;;;;;41.97;20.10;;;;;;;-5.67;89.93;97928.19;2098220;28;20032;-73
2023/02/11 04:19:20;;;;;;;38.13;20.38;;;;;;;-5.67;89.42;97932.38;2103390;28;20052;-73
2023/02/11 04:20:21;;;;;;;38.88;19.38;;;;;;;-5.69;89.96;97929.78;2106712;28;20031;-73
2023/02/11 04:21:22;;;;;;;39.05;20.73;;;;;;;-5.69;89.87;97933.97;2106703;28;20032;-73
2023/02/11 04:22:23;;;;;;;38.50;19.27;;;;;;;-5.65;89.92;97935.84;2106563;28;20067;-73
2023/02/11 04:23:24;;;;;;;39.67;19.33;;;;;;;-5.65;91.19;97945.97;2106702;28;20479;-73
2023/02/11 04:24:26;;;;;;;42.50;20.63;;;;;;;-5.69;89.88;97944.97;2106728;28;20028;-73
2023/02/11 04:25:27;;;;;;;40.33;20.50;;;;;;;-5.69;91.13;97937.38;2097726;28;20040;-73
2023/02/11 04:26:28;;;;;;;39.65;20.10;;;;;;;-5.69;90.72;97952.56;2097749;28;20051;-73
2023/02/11 04:27:29;;;;;;;39.88;19.75;;;;;;;-5.69;89.57;97954.22;2106711;28;20039;-73
2023/02/11 04:28:30;;;;;;;42.50;21.60;;;;;;;-5.65;89.75;97951.03;2106654;28;20032;-73
2023/02/11 04:29:31;;;;;;;40.35;19.90;;;;;;;-5.68;90.95;97951.75;2106679;28;20055;-73
2023/02/11 04:30:32;;;;;;;39.17;20.02;;;;;;;-5.69;89.58;97955.09;2106702;28;20063;-73
2023/02/11 04:31:33;;;;;;;38.50;20.45;;;;;;;-5.74;89.58;97943.91;2106640;28;20032;-73
2023/02/11 04:32:34;;;;;;;41.65;20.40;;;;;;;-5.68;90.34;97953.44;2106748;28;20043;-73
2023/02/11 04:33:36;;;;;;;38.00;20.08;;;;;;;-5.68;90.10;97949.22;2106661;28;20046;-73
2023/02/11 04:34:37;;;;;;;43.72;20.85;;;;;;;-5.65;89.99;97959.50;2106622;28;20036;-73
2023/02/11 04:35:38;;;;;;;37.13;20.63;;;;;;;-5.62;90.76;97958.78;2106537;28;20048;-73
2023/02/11 04:36:39;;;;;;;41.33;19.65;;;;;;;-5.59;90.52;97952.19;2106569;28;20359;-72
2023/02/11 04:37:40;;;;;;;37.38;20.05;;;;;;;-5.58;90.24;97953.06;2106511;28;20036;-73
2023/02/11 04:38:41;;;;;;;41.65;21.33;;;;;;;-5.59;91.01;97952.19;2106478;28;20052;-73
2023/02/11 04:39:42;;;;;;;39.00;20.80;;;;;;;-5.54;90.29;97953.28;2106674;28;20379;-73
2023/02/11 04:40:43;;;;;;;43.20;20.77;;;;;;;-5.56;91.23;97948.94;2106568;28;20043;-73
2023/02/11 04:41:44;;;;;;;38.75;19.73;;;;;;;-5.52;90.74;97952.50;2106664;28;20042;-73
2023/02/11 04:42:45;;;;;;;41.03;19.80;;;;;;;-5.50;91.37;97958.50;2106629;28;20375;-73
2023/02/11 04:43:47;;;;;;;42.10;21.75;;;;;;;-5.51;90.80;97949.16;2097892;28;20033;-73
2023/02/11 04:44:48;;;;;;;39.20;20.15;;;;;;;-5.48;90.46;97954.34;2097782;28;20067;-73
2023/02/11 04:45:49;;;;;;;40.38;20.55;;;;;;;-5.48;90.63;97955.25;2106442;28;20402;-73
2023/02/11 04:46:50;;;;;;;36.78;19.77;;;;;;;-5.46;89.96;97956.16;2106665;28;20039;-73
2023/02/11 04:47:51;;;;;;;37.33;19.25;;;;;;;-5.47;90.85;97949.38;2106598;28;20050;-73
2023/02/11 04:48:52;;;;;;;38.63;20.25;;;;;;;-5.46;90.43;97952.78;2106515;28;20379;-74
2023/02/11 04:49:53;;;;;;;36.03;19.70;;;;;;;-5.43;90.15;97950.38;2106552;28;20048;-74
2023/02/11 04:50:54;;;;;;;40.70;20.90;;;;;;;-5.47;90.62;97935.84;2106847;28;20040;-73
2023/02/11 04:51:55;;;;;;;37.22;18.33;;;;;;;-5.43;90.71;97936.03;2106643;28;20062;-74
2023/02/11 04:52:57;;;;;;;38.67;19.55;;;;;;;-5.39;91.29;97937.94;2106603;28;20420;-74
2023/02/11 04:53:58;;;;;;;38.22;20.13;;;;;;;-5.40;91.33;97930.25;2107308;28;20063;-74
2023/02/11 04:54:59;;;;;;;44.00;20.42;;;;;;;-5.34;90.24;97935.63;2106652;28;20031;-74
2023/02/11 04:56:00;;;;;;;35.97;19.48;;;;;;;-5.33;91.29;97940.72;2106567;28;20046;-74
2023/02/11 04:57:01;;;;;;;36.28;18.50;;;;;;;-5.29;90.21;97939.22;2106874;28;20118;-73
2023/02/11 04:58:02;;;;;;;42.03;20.50;;;;;;;-5.27;90.50;97942.69;2106578;28;20039;-74
2023/02/11 04:59:03;;;;;;;36.13;19.25;;;;;;;-5.24;90.86;97939.41;2106632;28;20048;-73
2023/02/11 05:00:05;;;;;;;40.28;20.13;;;;;;;-5.20;90.28;97941.31;2097592;28;20051;-74
2023/02/11 05:01:11;;;;;;;36.58;20.20;;;;;;;-5.18;90.16;97934.66;2097589;28;20072;-74
2023/02/11 05:02:12;;;;;;;41.75;20.25;;;;;;;-5.14;90.68;97934.84;2108041;28;20158;-73